Flight Track Log - Related Links

Times and Time Zones

All times are in EDT time to prevent confusion due to time zone crossing. See the N111UC flight status page for this flight to view local times or setup timezone preferences in your user account.

Time Position Orientation Groundspeed Altitude Reporting Facility
EDT Latitude Longitude Course Direction KTS MPH feet Rate Location/Type
Wed 09:14:01 PM 44.6911 -85.5339 122° Southeast 131 151 2,200  Level Minneapolis Center
Wed 09:15:03 PM 44.6972 -85.4789 81° East 140 161 3,000 672 Climbing Minneapolis Center
Wed 09:16:06 PM 44.7028 -85.4214 82° East 139 160 3,600 768 Climbing Minneapolis Center
Wed 09:17:08 PM 44.6617 -85.4089 168° South 142 163 4,600 581 Climbing Minneapolis Center
Wed 09:18:10 PM 44.6153 -85.4031 175° South 137 158 4,800 132 Climbing Minneapolis Center
Wed 09:19:24 PM 44.5636 -85.3875 168° South 148 170 4,900 44 Climbing Minneapolis Center
Wed 09:20:26 PM 44.5214 -85.3764 169° South 152 175 4,900  Level Minneapolis Center
Wed 09:21:28 PM 44.4794 -85.3642 168° South 153 176 4,900  Level Minneapolis Center
Wed 09:22:30 PM 44.4358 -85.3531 170° South 156 180 4,900  Level Minneapolis Center
Wed 09:23:32 PM 44.3933 -85.3481 175° South 155 178 4,900  Level Minneapolis Center
Wed 09:24:34 PM 44.3422 -85.3636 192° South 155 178 4,900  Level Minneapolis Center
Wed 09:25:36 PM 44.2986 -85.3742 190° South 157 181 4,900  Level Minneapolis Center
Wed 09:26:38 PM 44.2572 -85.3950 200° South 157 181 4,900  Level Minneapolis Center
Wed 09:27:40 PM 44.2161 -85.4142 198° South 156 180 4,900  Level Minneapolis Center
Wed 09:28:42 PM 44.1803 -85.4469 213° Southwest 154 177 4,900  Level Minneapolis Center
Wed 09:29:44 PM 44.1447 -85.4833 216° Southwest 156 180 4,900  Level Minneapolis Center
Wed 09:30:46 PM 44.1011 -85.5217 212° Southwest 156 180 4,900  Level Minneapolis Center
Wed 09:31:48 PM 44.0642 -85.5300 189° South 153 176 4,900  Level Minneapolis Center
Wed 09:32:50 PM 44.0236 -85.5150 165° South 148 170 4,900  Level Minneapolis Center
Wed 09:33:52 PM 43.9833 -85.4989 164° South 150 173 4,900  Level Minneapolis Center
Wed 09:34:54 PM 43.9344 -85.4872 170° South 149 171 4,900  Level Minneapolis Center
Wed 09:35:56 PM 43.8936 -85.4728 166° South 151 174 4,900  Level Minneapolis Center
Wed 09:36:58 PM 43.8517 -85.4597 167° South 153 176 4,900  Level Minneapolis Center
Wed 09:37:59 PM 43.8117 -85.4486 169° South 149 171 4,900  Level Minneapolis Center
Wed 09:39:01 PM 43.7708 -85.4350 166° South 149 171 4,900  Level Minneapolis Center
Wed 09:40:03 PM 43.7292 -85.4225 168° South 152 175 4,900  Level Minneapolis Center
Wed 09:41:05 PM 43.6803 -85.4081 168° South 152 175 4,900  Level Minneapolis Center
Wed 09:42:07 PM 43.6394 -85.3967 169° South 150 173 4,900  Level Minneapolis Center
Wed 09:43:01 PM 43.6075 -85.3858 166° South 150 173 4,900 -52 Level Chicago Center
Wed 09:44:03 PM 43.5667 -85.3714 166° South 150 173 4,800  Descending Chicago Center
Wed 09:45:05 PM 43.5256 -85.3583 167° South 151 174 4,900 48 Climbing Chicago Center
Wed 09:46:07 PM 43.4764 -85.3447 169° South 151 174 4,900  Level Chicago Center
Wed 09:47:09 PM 43.4364 -85.3311 166° South 150 173 4,900  Level Chicago Center
Wed 09:48:10 PM 43.3953 -85.3183 167° South 150 173 4,900  Level Chicago Center
Wed 09:49:12 PM 43.3550 -85.3058 167° South 149 171 4,900  Level Chicago Center
Wed 09:50:14 PM 43.3147 -85.2939 168° South 149 171 4,900  Level Chicago Center
Wed 09:51:16 PM 43.2739 -85.2819 168° South 149 171 4,900  Level Chicago Center
Wed 09:52:18 PM 43.2336 -85.2692 167° South 149 171 4,900  Level Chicago Center
Wed 09:53:19 PM 43.1856 -85.2539 167° South 148 170 4,900  Level Chicago Center
Wed 09:54:21 PM 43.1450 -85.2419 168° South 149 171 4,900  Level Chicago Center
Wed 09:55:23 PM 43.1047 -85.2303 168° South 148 170 4,900  Level Chicago Center
Wed 09:56:25 PM 43.0644 -85.2183 168° South 148 170 4,900  Level Chicago Center
Wed 09:57:27 PM 43.0233 -85.2053 167° South 150 173 4,900  Level Chicago Center
Wed 09:58:28 PM 42.9822 -85.1925 167° South 151 174 4,900  Level Chicago Center
Wed 09:59:31 PM 42.9325 -85.1794 169° South 151 174 4,900  Level Chicago Center
Wed 10:00:33 PM 42.8911 -85.1669 168° South 152 175 4,900  Level Chicago Center
Wed 10:01:35 PM 42.8500 -85.1533 166° South 153 176 4,900  Level Chicago Center
Wed 10:02:36 PM 42.8089 -85.1403 167° South 152 175 4,900  Level Chicago Center
Wed 10:03:38 PM 42.7678 -85.1289 169° South 151 174 4,900  Level Chicago Center
Wed 10:04:39 PM 42.7261 -85.1164 168° South 152 175 4,900  Level Chicago Center
Wed 10:05:41 PM 42.6858 -85.1056 169° South 149 171 4,900  Level Chicago Center
Wed 10:06:42 PM 42.6447 -85.0931 167° South 150 173 4,900  Level Chicago Center
Wed 10:07:44 PM 42.5961 -85.0753 165° South 151 174 4,900  Level Chicago Center
Wed 10:08:45 PM 42.5553 -85.0661 171° South 149 171 4,900  Level Chicago Center
Wed 10:09:47 PM 42.5156 -85.0533 167° South 147 169 4,900  Level Chicago Center
Wed 10:10:48 PM 42.4756 -85.0394 166° South 148 170 4,900  Level Chicago Center
Wed 10:11:49 PM 42.4353 -85.0294 170° South 148 170 4,900  Level Chicago Center
Wed 10:12:51 PM 42.3958 -85.0167 167° South 146 168 4,900  Level Chicago Center
Wed 10:13:52 PM 42.3556 -85.0056 168° South 147 169 4,900  Level Chicago Center
Wed 10:14:53 PM 42.3167 -84.9939 167° South 145 167 4,900  Level Chicago Center
Wed 10:15:55 PM 42.2758 -84.9828 169° South 148 170 4,900  Level Chicago Center
Wed 10:16:56 PM 42.2303 -84.9686 167° South 148 170 4,900  Level Chicago Center
Wed 10:17:57 PM 42.1908 -84.9561 167° South 146 168 4,900 -49 Level Chicago Center
Wed 10:18:58 PM 42.1503 -84.9458 169° South 148 170 4,800  Descending Chicago Center
Wed 10:20:00 PM 42.1097 -84.9342 168° South 148 170 4,900 49 Climbing Chicago Center
Wed 10:21:01 PM 42.0697 -84.9225 168° South 147 169 4,900  Level Chicago Center
Wed 10:22:02 PM 42.0292 -84.9097 167° South 148 170 4,900  Level Chicago Center
Wed 10:23:03 PM 41.9892 -84.8975 167° South 148 170 4,900  Level Chicago Center
Wed 10:24:04 PM 41.9489 -84.8858 168° South 147 169 4,900  Level Chicago Center
Wed 10:25:05 PM 41.9094 -84.8761 170° South 146 168 4,900  Level Chicago Center
Wed 10:26:06 PM 41.8611 -84.8619 168° South 146 168 4,900  Level Chicago Center
Wed 10:27:07 PM 41.8211 -84.8483 166° South 147 169 4,900  Level Chicago Center
Wed 10:28:08 PM 41.7806 -84.8367 168° South 148 170 4,900 49 Level Chicago Center
Wed 10:29:09 PM 41.7406 -84.8256 168° South 147 169 5,000  Climbing Chicago Center
Wed 10:30:11 PM 41.7017 -84.8150 169° South 146 168 4,900 -44 Descending Chicago Center
Wed 10:31:24 PM 41.6531 -84.7997 167° South 147 169 4,900  Level Chicago Center
Wed 10:32:25 PM 41.6128 -84.7878 167° South 148 170 4,900  Level Chicago Center
Wed 10:33:26 PM 41.5722 -84.7764 168° South 148 170 4,900  Level Chicago Center
Wed 10:34:27 PM 41.5308 -84.7656 169° South 149 171 4,900  Level Chicago Center
Wed 10:35:28 PM 41.4906 -84.7531 167° South 149 171 4,900 49 Level Chicago Center
Wed 10:36:29 PM 41.4492 -84.7411 168° South 150 173 5,000 49 Climbing Chicago Center
Wed 10:37:31 PM 41.4081 -84.7289 167° South 151 174 5,000 -49 Level Chicago Center
Wed 10:38:32 PM 41.3589 -84.7131 166° South 152 175 4,900 -49 Descending Chicago Center
Wed 10:39:33 PM 41.3181 -84.7025 169° South 150 173 4,900  Level Chicago Center
Wed 10:40:34 PM 41.2775 -84.6919 169° South 150 173 4,900  Level Chicago Center
Wed 10:41:35 PM 41.2364 -84.6806 168° South 150 173 4,900 49 Level Chicago Center
Wed 10:42:36 PM 41.1964 -84.6653 164° South 151 174 5,000  Climbing Chicago Center
Wed 10:43:37 PM 41.1561 -84.6583 173° South 147 169 4,900 -49 Descending Chicago Center
Wed 10:44:38 PM 41.1150 -84.6447 166° South 149 171 4,900  Level Chicago Center
Wed 10:45:40 PM 41.0742 -84.6322 167° South 150 173 4,900  Level Chicago Center
Wed 10:46:41 PM 41.0333 -84.6217 169° South 150 173 4,900  Level Chicago Center
Wed 10:47:42 PM 40.9925 -84.6097 168° South 150 173 4,900  Level Chicago Center
Wed 10:48:43 PM 40.9517 -84.5989 169° South 150 173 4,900 49 Level Chicago Center
Wed 10:49:44 PM 40.9025 -84.5844 167° South 150 173 5,000  Climbing Chicago Center
Wed 10:50:46 PM 40.8608 -84.5722 167° South 151 174 4,900  Descending Chicago Center
Wed 10:51:24 PM 40.8403 -84.5675 170° South 150 173 5,000 61 Climbing Indianapolis Center
Wed 10:52:25 PM 40.7931 -84.5553 169° South 148 170 5,000  Level Indianapolis Center
Wed 10:53:26 PM 40.7517 -84.5433 168° South 149 171 5,000  Level Indianapolis Center
Wed 10:54:27 PM 40.7106 -84.5311 167° South 150 173 5,000  Level Indianapolis Center
Wed 10:55:28 PM 40.6681 -84.5200 169° South 151 174 5,000  Level Indianapolis Center
Wed 10:56:29 PM 40.6269 -84.5078 167° South 151 174 5,000  Level Indianapolis Center
Wed 10:57:30 PM 40.5864 -84.4969 169° South 150 173 5,000  Level Indianapolis Center
Wed 10:58:32 PM 40.5456 -84.4856 168° South 149 171 5,000  Level Indianapolis Center
Wed 10:59:33 PM 40.5044 -84.4733 167° South 150 173 5,000  Level Indianapolis Center
Wed 11:00:04 PM 40.4817 -84.4686 171° South 148 170 5,000  Level Indianapolis Center
Wed 11:00:34 PM 40.4639 -84.4633 167° South 148 170 5,000  Level Indianapolis Center
Wed 11:01:35 PM 40.4231 -84.4517 168° South 149 171 5,000  Level Indianapolis Center
Wed 11:02:36 PM 40.3819 -84.4406 168° South 149 171 5,000 -49 Level Indianapolis Center
Wed 11:03:38 PM 40.3408 -84.4283 167° South 149 171 4,900 -49 Descending Indianapolis Center
Wed 11:04:39 PM 40.2992 -84.4172 169° South 151 174 4,900  Level Indianapolis Center
Wed 11:05:40 PM 40.2583 -84.4061 168° South 150 173 4,900  Level Indianapolis Center
Wed 11:06:41 PM 40.2178 -84.3942 167° South 149 171 4,900 49 Level Indianapolis Center
Wed 11:07:43 PM 40.1764 -84.3836 169° South 149 171 5,000  Climbing Indianapolis Center
Wed 11:08:44 PM 40.1286 -84.3703 168° South 149 171 4,900 -49 Descending Indianapolis Center
Wed 11:09:45 PM 40.0881 -84.3583 167° South 149 171 4,900  Level Indianapolis Center
Wed 11:10:46 PM 40.0483 -84.3497 171° South 146 168 4,900  Level Indianapolis Center
Wed 11:11:48 PM 40.0069 -84.3383 168° South 148 170 4,900 49 Level Indianapolis Center
Wed 11:12:49 PM 39.9625 -84.3278 170° South 157 181 5,000 49 Climbing Indianapolis Center
Wed 11:13:50 PM 39.9261 -84.3156 166° South 146 168 5,000 -246 Level Indianapolis Center
Wed 11:14:51 PM 39.8853 -84.3047 168° South 144 166 4,500 -455 Descending Indianapolis Center
Wed 11:16:02 PM 39.8294 -84.2897 168° South 161 185 4,000 -390 Descending Indianapolis Center
Wed 11:16:54 PM 39.7961 -84.2808 168° South 158 182 3,700 -319 Descending Indianapolis Center
Wed 11:17:55 PM 39.7522 -84.2675 167° South 158 182 3,400 -295 Descending Indianapolis Center
Wed 11:19:00 PM 39.5833 -84.2167 180° South  Level FlightAware Approximate
Wed 11:26:00 PM 39.5890 -84.2249 180° South  Level Estimated
Wed 11:27:00 PM 39.5890 -84.2249 180° South  Level Estimated

Login

Don't have an account? Register now (free) for customized features, flight alerts, and more!